Uvalde Research's Hourly Summary for Tuesday, March 14, 2017
Hour Temp
(f)
RH
(%)
Solar Rad.
(MJ/m2)
Rainfall
(in)
Wind
(mph)
3/14/2017 12:00 AM 54 91 0 0 0.06
3/14/2017 1:00 AM 53 93 0 0 0
3/14/2017 2:00 AM 53 94 0 0 0
3/14/2017 3:00 AM 52 95 0 0 0
3/14/2017 4:00 AM 51 97 0 0 1.52
3/14/2017 5:00 AM 51 97 0 0 0.13
3/14/2017 6:00 AM 50 95 0 0 0
3/14/2017 7:00 AM 49 94 0.01 0 0
3/14/2017 8:00 AM 50 92 0.33 0 1.09
3/14/2017 9:00 AM 52 79 1 0 3.52
3/14/2017 10:00 AM 56 63 1.66 0 3.46
3/14/2017 11:00 AM 60 57 2.22 0 3.68
3/14/2017 12:00 PM 64 51 2.58 0 4.14
3/14/2017 1:00 PM 66 50 2.74 0 3.78
3/14/2017 2:00 PM 69 46 2.7 0 4.11
3/14/2017 3:00 PM 71 43 2.44 0 4.15
3/14/2017 4:00 PM 72 43 1.97 0 3.77
3/14/2017 5:00 PM 72 44 1.37 0 3.67
3/14/2017 6:00 PM 72 46 0.62 0 3.4
3/14/2017 7:00 PM 68 52 0.04 0 2.1
3/14/2017 8:00 PM 63 61 0 0 0.59
3/14/2017 9:00 PM 61 63 0 0 1.48
3/14/2017 10:00 PM 57 70 0 0 1.29
3/14/2017 11:00 PM 57 71 0 0 0.49
Data Summary 59 70 19.68 0.00 1.93